createdAt,value
2019-03-21T00:00:37.141Z,16.10
2019-03-21T00:03:08.623Z,10.67
2019-03-21T00:05:40.625Z,11.23
2019-03-21T00:08:12.594Z,9.97
2019-03-21T00:11:27.611Z,15.73
2019-03-21T00:14:06.912Z,11.03
2019-03-21T00:16:35.877Z,11.23
2019-03-21T00:19:07.393Z,13.67
2019-03-21T00:21:39.251Z,12.53
2019-03-21T00:24:10.910Z,12.30
2019-03-21T00:26:53.626Z,13.33
2019-03-21T00:29:25.616Z,14.20
2019-03-21T00:31:57.274Z,12.97
2019-03-21T00:34:28.900Z,17.57
2019-03-21T00:37:00.530Z,15.63
2019-03-21T00:39:33.223Z,17.73
2019-03-21T00:42:04.868Z,13.17
2019-03-21T00:44:36.773Z,13.43
2019-03-21T00:47:08.294Z,13.83
2019-03-21T00:49:40.244Z,14.50
2019-03-21T00:52:11.874Z,12.47
2019-03-21T00:54:43.484Z,13.00
2019-03-21T00:57:15.411Z,11.47
2019-03-21T00:59:47.356Z,14.47
2019-03-21T01:02:19.314Z,13.73
2019-03-21T01:04:51.270Z,15.43
2019-03-21T01:07:23.231Z,12.70
2019-03-21T01:09:55.014Z,11.30
2019-03-21T01:12:26.839Z,12.97
2019-03-21T01:14:58.741Z,13.03
2019-03-21T01:17:30.383Z,13.73
2019-03-21T01:20:01.976Z,18.13
2019-03-21T01:22:34.570Z,19.37
2019-03-21T01:25:08.535Z,18.80
2019-03-21T01:27:40.049Z,19.20
2019-03-21T01:30:13.545Z,18.70
2019-03-21T01:32:45.305Z,17.87
2019-03-21T01:35:17.209Z,16.53
2019-03-21T01:37:48.775Z,23.37
2019-03-21T01:40:22.105Z,18.07
2019-03-21T01:42:54.061Z,18.23
2019-03-21T01:45:26.073Z,18.20
2019-03-21T01:47:57.987Z,18.80
2019-03-21T01:50:31.051Z,17.33
2019-03-21T01:53:02.639Z,18.43
2019-03-21T01:55:34.228Z,16.83
2019-03-21T01:58:05.730Z,15.77
2019-03-21T02:00:38.203Z,16.20
2019-03-21T02:03:10.283Z,15.50
2019-03-21T02:05:42.762Z,12.50
2019-03-21T02:08:14.419Z,15.17
2019-03-21T02:10:46.089Z,15.93
2019-03-21T02:13:18.071Z,18.43
2019-03-21T02:15:50.724Z,16.30
2019-03-21T02:18:22.521Z,17.53
2019-03-21T02:20:54.115Z,20.70
2019-03-21T02:23:26.410Z,19.33
2019-03-21T02:25:58.494Z,16.80
2019-03-21T02:28:30.511Z,21.07
2019-03-21T02:31:02.123Z,23.67
2019-03-21T02:33:33.981Z,19.87
2019-03-21T02:36:06.105Z,21.67
2019-03-21T02:38:37.566Z,26.10
2019-03-21T02:41:10.022Z,23.30
2019-03-21T02:43:42.038Z,24.37
2019-03-21T02:46:13.684Z,28.00
2019-03-21T02:48:45.280Z,30.17
2019-03-21T02:51:16.866Z,29.40
2019-03-21T02:53:49.095Z,26.87
2019-03-21T02:56:21.088Z,23.03
2019-03-21T02:58:52.943Z,22.73
2019-03-21T03:01:24.577Z,22.13
2019-03-21T03:03:56.161Z,19.07
2019-03-21T03:06:27.691Z,23.33
2019-03-21T03:08:59.323Z,25.90
2019-03-21T03:11:30.914Z,26.47
2019-03-21T03:14:04.462Z,26.03
2019-03-21T03:16:36.415Z,25.50
2019-03-21T03:19:08.003Z,25.37
2019-03-21T03:21:39.989Z,23.13
2019-03-21T03:24:12.256Z,19.17
2019-03-21T03:26:44.189Z,19.07
2019-03-21T03:29:16.261Z,21.20
2019-03-21T03:31:48.854Z,15.63
2019-03-21T03:34:20.532Z,20.13
2019-03-21T03:36:52.292Z,15.87
2019-03-21T03:39:24.304Z,18.50
2019-03-21T03:41:56.278Z,18.23
2019-03-21T03:44:27.921Z,16.23
2019-03-21T03:46:59.487Z,16.60
2019-03-21T03:49:31.387Z,19.07
2019-03-21T03:52:03.013Z,19.80
2019-03-21T03:54:34.946Z,18.03
2019-03-21T03:57:06.523Z,15.70
2019-03-21T03:59:38.178Z,16.17
2019-03-21T04:02:10.229Z,18.07
2019-03-21T04:04:41.737Z,13.93
2019-03-21T04:07:14.511Z,18.33
2019-03-21T04:09:46.059Z,14.50
2019-03-21T04:12:18.155Z,17.90
2019-03-21T04:14:49.717Z,16.37
2019-03-21T04:17:22.012Z,15.90
2019-03-21T04:19:53.511Z,17.67
2019-03-21T04:22:25.330Z,17.03
2019-03-21T04:24:57.328Z,20.83
2019-03-21T04:27:29.345Z,20.80
2019-03-21T04:30:01.007Z,18.37
2019-03-21T04:32:32.548Z,19.53
2019-03-21T04:35:04.417Z,24.90
2019-03-21T04:37:36.351Z,22.50
2019-03-21T04:40:08.843Z,26.87
2019-03-21T04:42:40.397Z,22.33
2019-03-21T04:45:14.860Z,26.90
2019-03-21T04:47:46.633Z,28.57
2019-03-21T04:50:23.578Z,24.20
2019-03-21T04:52:55.825Z,22.33
2019-03-21T04:55:27.395Z,22.00
2019-03-21T04:57:59.038Z,19.40
2019-03-21T05:00:32.298Z,19.90
2019-03-21T05:03:04.436Z,19.00
2019-03-21T05:05:36.078Z,18.60
2019-03-21T05:08:07.664Z,17.77
2019-03-21T05:10:39.620Z,19.30
2019-03-21T05:13:11.270Z,26.13
2019-03-21T05:15:43.167Z,23.10
2019-03-21T05:18:21.592Z,19.10
2019-03-21T05:20:53.538Z,20.93
2019-03-21T05:23:36.711Z,20.13
2019-03-21T05:26:08.554Z,22.40
2019-03-21T05:28:40.148Z,25.93
2019-03-21T05:31:15.318Z,30.10
2019-03-21T05:33:47.170Z,27.80
2019-03-21T05:36:18.755Z,28.90
2019-03-21T05:38:50.719Z,29.83
2019-03-21T05:41:33.894Z,34.63
2019-03-21T05:44:11.606Z,39.33
2019-03-21T05:46:43.504Z,37.10
2019-03-21T05:49:15.092Z,38.07
2019-03-21T05:51:46.591Z,30.87
2019-03-21T05:54:18.226Z,32.13
2019-03-21T05:56:49.768Z,28.10
2019-03-21T05:59:21.382Z,32.10
2019-03-21T06:01:52.969Z,32.00
2019-03-21T06:04:24.595Z,29.37
2019-03-21T06:07:22.652Z,32.53
2019-03-21T06:09:54.962Z,33.70
2019-03-21T06:12:26.666Z,38.20
2019-03-21T06:15:00.546Z,39.43
2019-03-21T06:17:33.533Z,38.87
2019-03-21T06:20:44.511Z,41.93
2019-03-21T06:23:47.593Z,44.53
2019-03-21T06:26:39.133Z,44.77
2019-03-21T06:29:14.183Z,43.93
2019-03-21T06:31:46.245Z,38.37
2019-03-21T06:34:17.771Z,41.80
2019-03-21T06:36:49.370Z,39.23
2019-03-21T06:39:20.951Z,37.93
2019-03-21T06:41:52.925Z,38.40
2019-03-21T06:44:24.521Z,40.67
2019-03-21T06:46:56.317Z,41.27
2019-03-21T06:49:27.956Z,39.83
2019-03-21T06:52:00.058Z,44.80
2019-03-21T06:54:32.023Z,48.13
2019-03-21T06:57:03.607Z,37.83
2019-03-21T06:59:35.165Z,45.73
2019-03-21T07:02:07.184Z,40.77
2019-03-21T07:04:38.940Z,42.10
2019-03-21T07:07:10.496Z,45.60
2019-03-21T07:09:42.388Z,42.30
2019-03-21T07:12:14.322Z,41.63
2019-03-21T07:14:46.608Z,40.50
2019-03-21T07:17:18.204Z,38.93
2019-03-21T07:19:49.854Z,39.03
2019-03-21T07:22:22.099Z,46.03
2019-03-21T07:24:53.720Z,41.27
2019-03-21T07:27:25.978Z,43.87
2019-03-21T07:29:57.578Z,42.17
2019-03-21T07:32:33.267Z,46.30
2019-03-21T07:35:02.375Z,46.80
2019-03-21T07:37:33.964Z,43.60
2019-03-21T07:40:07.014Z,45.53
2019-03-21T07:42:39.605Z,45.33
2019-03-21T07:45:11.457Z,44.20
2019-03-21T07:47:43.076Z,39.40
2019-03-21T07:50:14.954Z,43.37
2019-03-21T07:52:47.655Z,40.17
2019-03-21T07:55:19.156Z,38.53
2019-03-21T07:57:50.665Z,42.87
2019-03-21T08:00:23.401Z,45.73
2019-03-21T08:02:54.913Z,44.70
2019-03-21T08:05:26.733Z,40.60
2019-03-21T08:07:58.334Z,37.50
2019-03-21T08:10:30.663Z,38.90
2019-03-21T08:13:02.313Z,41.30
2019-03-21T08:15:34.163Z,41.87
2019-03-21T08:18:17.275Z,39.10
2019-03-21T08:20:57.195Z,35.83
2019-03-21T08:23:22.187Z,43.20
2019-03-21T08:25:53.769Z,41.00
2019-03-21T08:28:25.418Z,42.33
2019-03-21T08:31:30.980Z,37.57
2019-03-21T08:34:02.892Z,40.50
2019-03-21T08:36:34.838Z,51.57
2019-03-21T08:39:09.139Z,38.80
2019-03-21T08:41:41.177Z,36.77
2019-03-21T08:44:13.170Z,38.10
2019-03-21T08:46:45.146Z,44.73
2019-03-21T08:49:17.077Z,35.07
2019-03-21T08:51:49.161Z,34.33
2019-03-21T08:54:21.105Z,36.33
2019-03-21T08:56:53.077Z,38.87
2019-03-21T08:59:24.732Z,35.53
2019-03-21T09:01:57.025Z,34.07
2019-03-21T09:04:29.034Z,32.77
2019-03-21T09:07:00.651Z,32.27
2019-03-21T09:09:32.636Z,37.23
2019-03-21T09:12:05.431Z,33.87
2019-03-21T09:14:37.380Z,32.67
2019-03-21T09:17:08.985Z,37.63
2019-03-21T09:19:41.036Z,32.77
2019-03-21T09:22:12.636Z,29.77
2019-03-21T09:24:45.639Z,34.57
2019-03-21T09:27:17.372Z,32.00
2019-03-21T09:29:53.361Z,30.30
2019-03-21T09:32:22.540Z,30.40
2019-03-21T09:34:54.262Z,34.53
2019-03-21T09:37:25.867Z,35.43
2019-03-21T09:39:57.952Z,32.57
2019-03-21T09:42:29.642Z,31.80
2019-03-21T09:45:01.563Z,31.17
2019-03-21T09:47:34.698Z,31.03
2019-03-21T09:50:06.711Z,28.73
2019-03-21T09:52:38.294Z,36.77
2019-03-21T09:55:09.966Z,29.93
2019-03-21T09:57:41.555Z,30.63
2019-03-21T10:00:14.721Z,31.77
2019-03-21T10:02:46.358Z,28.37
2019-03-21T10:05:17.968Z,29.23
2019-03-21T10:07:49.576Z,29.20
2019-03-21T10:10:28.097Z,33.70
2019-03-21T10:13:00.527Z,32.87
2019-03-21T10:15:32.319Z,29.43
2019-03-21T10:18:04.014Z,28.97
2019-03-21T10:20:35.678Z,27.03
2019-03-21T10:23:08.563Z,28.00
2019-03-21T10:25:41.159Z,29.40
2019-03-21T10:28:12.766Z,30.27
2019-03-21T10:30:44.729Z,27.60
2019-03-21T10:33:16.723Z,32.00
2019-03-21T10:35:48.677Z,30.93
2019-03-21T10:38:20.279Z,26.67
2019-03-21T10:40:51.859Z,30.03
2019-03-21T10:43:23.458Z,28.13
2019-03-21T10:45:55.061Z,24.75
2019-03-21T10:48:26.659Z,22.48
2019-03-21T10:50:58.681Z,25.68
2019-03-21T10:53:30.295Z,27.90
2019-03-21T10:56:01.949Z,22.27
2019-03-21T10:58:33.542Z,23.25
2019-03-21T11:01:05.194Z,18.30
2019-03-21T11:03:36.820Z,20.70
2019-03-21T11:06:08.823Z,22.93
2019-03-21T11:08:40.472Z,23.02
2019-03-21T11:11:13.795Z,20.90
2019-03-21T11:13:45.378Z,19.62
2019-03-21T11:16:17.331Z,19.95
2019-03-21T11:18:49.256Z,24.02
2019-03-21T11:21:20.808Z,25.27
2019-03-21T11:23:52.475Z,21.87
2019-03-21T11:26:24.086Z,19.92
2019-03-21T11:28:56.023Z,20.25
2019-03-21T11:31:27.613Z,19.87
2019-03-21T11:33:59.198Z,20.92
2019-03-21T11:36:38.179Z,20.43
2019-03-21T11:39:07.652Z,20.27
2019-03-21T11:41:39.269Z,21.40
2019-03-21T11:44:10.900Z,21.35
2019-03-21T11:46:42.575Z,21.52
2019-03-21T11:49:14.250Z,23.40
2019-03-21T11:51:45.852Z,21.93
2019-03-21T11:54:17.515Z,23.07
2019-03-21T11:56:49.157Z,22.48
2019-03-21T11:59:20.786Z,22.50
2019-03-21T12:01:52.738Z,25.12
2019-03-21T12:04:24.682Z,22.60
2019-03-21T12:06:56.674Z,26.60
2019-03-21T12:09:29.257Z,22.40
2019-03-21T12:12:01.466Z,23.47
2019-03-21T12:14:33.136Z,20.82
2019-03-21T12:17:05.363Z,17.98
2019-03-21T12:19:36.942Z,15.95
2019-03-21T12:22:08.809Z,20.60
2019-03-21T12:24:40.481Z,20.48
2019-03-21T12:27:12.358Z,18.92
2019-03-21T12:29:44.380Z,20.23
2019-03-21T12:32:15.896Z,18.02
2019-03-21T12:34:47.519Z,19.80
2019-03-21T12:37:19.137Z,24.10
2019-03-21T12:39:52.043Z,23.47
2019-03-21T12:42:24.017Z,26.03
2019-03-21T12:44:56.103Z,22.77
2019-03-21T12:47:31.416Z,25.77
2019-03-21T12:50:01.429Z,28.10
2019-03-21T12:52:41.341Z,24.55
2019-03-21T12:55:08.323Z,23.47
2019-03-21T12:57:39.968Z,27.37
2019-03-21T13:00:11.749Z,25.07
2019-03-21T13:02:44.537Z,24.40
2019-03-21T13:05:23.605Z,22.23
2019-03-21T13:07:55.463Z,24.33
2019-03-21T13:10:27.413Z,24.98
2019-03-21T13:12:59.365Z,26.80
2019-03-21T13:15:31.345Z,24.30
2019-03-21T13:18:02.953Z,23.25
2019-03-21T13:20:34.685Z,24.00
2019-03-21T13:23:07.439Z,25.55
2019-03-21T13:25:40.040Z,24.43
2019-03-21T13:28:11.691Z,23.47
2019-03-21T13:30:43.276Z,26.90
2019-03-21T13:33:14.903Z,22.90
2019-03-21T13:35:46.559Z,23.35
2019-03-21T13:38:18.182Z,24.90
2019-03-21T13:40:50.236Z,25.30
2019-03-21T13:43:21.891Z,21.90
2019-03-21T13:45:53.472Z,23.70
2019-03-21T13:48:25.085Z,23.77
2019-03-21T13:50:56.640Z,27.45
2019-03-21T13:53:28.599Z,25.57
2019-03-21T13:56:00.550Z,25.70
2019-03-21T13:58:33.696Z,26.23
2019-03-21T14:01:05.580Z,25.70
2019-03-21T14:03:37.252Z,22.43
2019-03-21T14:06:09.154Z,25.00
2019-03-21T14:08:42.224Z,24.10
2019-03-21T14:11:14.883Z,26.57
2019-03-21T14:13:46.468Z,24.47
2019-03-21T14:16:18.520Z,23.63
2019-03-21T14:18:50.077Z,26.97
2019-03-21T14:21:21.591Z,24.70
2019-03-21T14:23:53.220Z,22.97
2019-03-21T14:26:24.756Z,22.70
2019-03-21T14:28:56.300Z,20.00
2019-03-21T14:31:29.260Z,23.23
2019-03-21T14:34:00.862Z,24.03
2019-03-21T14:36:32.978Z,21.70
2019-03-21T14:39:06.588Z,22.20
2019-03-21T14:41:38.617Z,24.83
2019-03-21T14:44:10.337Z,23.83
2019-03-21T14:46:41.944Z,23.47
2019-03-21T14:49:25.581Z,23.90
2019-03-21T14:51:57.163Z,23.37
2019-03-21T14:54:28.752Z,25.57
2019-03-21T14:57:00.355Z,26.37
2019-03-21T14:59:31.872Z,31.70
2019-03-21T15:02:03.499Z,24.60
2019-03-21T15:04:35.179Z,24.53
2019-03-21T15:07:06.775Z,27.03
2019-03-21T15:09:38.489Z,26.50
2019-03-21T15:12:10.855Z,25.40
2019-03-21T15:14:42.435Z,26.90
2019-03-21T15:17:14.009Z,22.47
2019-03-21T15:19:46.031Z,21.23
2019-03-21T15:22:17.963Z,20.70
2019-03-21T15:24:50.003Z,21.83
2019-03-21T15:27:22.069Z,23.33
2019-03-21T15:29:53.677Z,26.07
2019-03-21T15:32:25.337Z,27.70
2019-03-21T15:34:58.275Z,23.17
2019-03-21T15:37:29.899Z,19.73
2019-03-21T15:40:01.517Z,22.95
2019-03-21T15:42:33.471Z,25.17
2019-03-21T15:45:20.433Z,22.40
2019-03-21T15:47:39.819Z,22.57
2019-03-21T15:50:15.810Z,23.13
2019-03-21T15:52:47.470Z,25.67
2019-03-21T15:55:19.388Z,23.00
2019-03-21T15:57:51.063Z,21.57
2019-03-21T16:00:33.665Z,22.67
2019-03-21T16:03:06.270Z,25.70
2019-03-21T16:05:38.387Z,22.33
2019-03-21T16:08:10.694Z,26.27
2019-03-21T16:10:43.333Z,25.13
2019-03-21T16:13:15.010Z,22.47
2019-03-21T16:15:46.601Z,24.57
2019-03-21T16:18:18.270Z,23.07
2019-03-21T16:20:50.169Z,23.37
2019-03-21T16:23:21.823Z,20.17
2019-03-21T16:25:53.426Z,22.17
2019-03-21T16:28:25.029Z,23.00
2019-03-21T16:30:56.666Z,21.10
2019-03-21T16:33:28.642Z,20.23
2019-03-21T16:36:01.754Z,22.00
2019-03-21T16:38:34.108Z,21.87
2019-03-21T16:41:05.700Z,20.53
2019-03-21T16:43:37.724Z,22.03
2019-03-21T16:46:09.387Z,23.43
2019-03-21T16:48:41.031Z,23.47
2019-03-21T16:51:12.999Z,23.30
2019-03-21T16:53:44.950Z,25.20
2019-03-21T16:56:16.612Z,21.33
2019-03-21T16:58:51.232Z,24.07
2019-03-21T17:01:22.829Z,22.40
2019-03-21T17:03:55.085Z,22.90
2019-03-21T17:06:27.116Z,21.30
2019-03-21T17:08:58.775Z,23.33
2019-03-21T17:11:30.770Z,21.70
2019-03-21T17:14:02.422Z,21.20
2019-03-21T17:16:34.007Z,22.30
2019-03-21T17:19:05.566Z,20.70
2019-03-21T17:21:37.648Z,24.90
2019-03-21T17:24:09.199Z,24.57
2019-03-21T17:26:40.988Z,19.93
2019-03-21T17:29:13.025Z,22.27
2019-03-21T17:31:44.694Z,20.27
2019-03-21T17:34:16.309Z,21.37
2019-03-21T17:36:48.198Z,22.43
2019-03-21T17:39:20.124Z,24.37
2019-03-21T17:41:52.116Z,24.60
2019-03-21T17:44:24.151Z,23.90
2019-03-21T17:46:55.799Z,22.03
2019-03-21T17:49:27.314Z,23.97
2019-03-21T17:51:58.990Z,20.37
2019-03-21T17:54:41.069Z,21.87
2019-03-21T17:57:04.300Z,21.83
2019-03-21T17:59:36.639Z,21.17
2019-03-21T18:02:08.734Z,22.63
2019-03-21T18:04:40.660Z,20.80
2019-03-21T18:07:12.650Z,22.37
2019-03-21T18:09:44.403Z,21.20
2019-03-21T18:12:16.158Z,22.80
2019-03-21T18:14:47.841Z,22.67
2019-03-21T18:17:19.439Z,23.13
2019-03-21T18:19:51.046Z,20.67
2019-03-21T18:22:22.666Z,24.30
2019-03-21T18:24:54.948Z,21.90
2019-03-21T18:27:26.653Z,22.03
2019-03-21T18:29:58.264Z,21.93
2019-03-21T18:32:29.889Z,25.80
2019-03-21T18:35:01.461Z,24.23
2019-03-21T18:37:33.531Z,21.43
2019-03-21T18:40:05.798Z,22.27
2019-03-21T18:42:37.398Z,22.33
2019-03-21T18:45:09.079Z,22.93
2019-03-21T18:47:40.634Z,21.17
2019-03-21T18:50:12.922Z,22.93
2019-03-21T18:52:45.287Z,27.87
2019-03-21T18:55:18.338Z,23.90
2019-03-21T18:57:49.938Z,22.50
2019-03-21T19:00:22.109Z,26.70
2019-03-21T19:02:54.092Z,27.27
2019-03-21T19:05:25.648Z,28.80
2019-03-21T19:07:57.550Z,26.33
2019-03-21T19:10:29.140Z,27.90
2019-03-21T19:13:00.846Z,30.07
2019-03-21T19:15:33.405Z,29.50
2019-03-21T19:18:05.843Z,26.57
2019-03-21T19:20:38.004Z,28.93
2019-03-21T19:23:09.560Z,29.97
2019-03-21T19:25:41.466Z,29.33
2019-03-21T19:28:13.041Z,28.47
2019-03-21T19:30:44.644Z,29.03
2019-03-21T19:33:18.364Z,30.30
2019-03-21T19:35:49.924Z,33.10
2019-03-21T19:38:23.809Z,43.02
2019-03-21T19:40:55.113Z,41.27
2019-03-21T19:43:26.707Z,45.37
2019-03-21T19:45:58.846Z,47.93
2019-03-21T19:48:30.398Z,57.45
2019-03-21T19:51:02.055Z,60.13
2019-03-21T19:53:33.971Z,55.63
2019-03-21T19:56:08.629Z,57.47
2019-03-21T19:58:39.059Z,58.70
2019-03-21T20:01:11.026Z,56.70
2019-03-21T20:03:42.956Z,56.07
2019-03-21T20:06:14.960Z,60.83
2019-03-21T20:08:46.607Z,60.93
2019-03-21T20:11:18.562Z,63.93
2019-03-21T20:13:50.939Z,63.13
2019-03-21T20:16:22.479Z,62.63
2019-03-21T20:18:54.851Z,63.97
2019-03-21T20:21:26.365Z,60.13
2019-03-21T20:23:57.966Z,65.30
2019-03-21T20:26:29.651Z,63.47
2019-03-21T20:29:01.713Z,62.77
2019-03-21T20:31:33.757Z,60.80
2019-03-21T20:34:05.701Z,61.67
2019-03-21T20:36:37.748Z,65.40
2019-03-21T20:39:10.163Z,61.27
2019-03-21T20:41:41.772Z,66.53
2019-03-21T20:44:15.434Z,59.93
2019-03-21T20:46:47.356Z,58.30
2019-03-21T20:49:19.412Z,59.47
2019-03-21T20:51:51.358Z,62.17
2019-03-21T20:54:23.342Z,62.10
2019-03-21T20:56:55.306Z,62.93
2019-03-21T20:59:27.011Z,54.77
2019-03-21T21:02:02.845Z,57.37
2019-03-21T21:04:32.192Z,57.20
2019-03-21T21:07:03.884Z,62.90
2019-03-21T21:09:35.596Z,57.30
2019-03-21T21:12:07.606Z,53.10
2019-03-21T21:14:39.770Z,56.73
2019-03-21T21:17:11.399Z,56.37
2019-03-21T21:19:43.385Z,57.77
2019-03-21T21:22:15.016Z,58.27
2019-03-21T21:24:47.008Z,58.57
2019-03-21T21:27:18.683Z,58.53
2019-03-21T21:29:51.746Z,55.60
2019-03-21T21:32:23.393Z,54.90
2019-03-21T21:34:55.085Z,57.70
2019-03-21T21:37:26.803Z,54.23
2019-03-21T21:39:58.527Z,53.40
2019-03-21T21:42:30.523Z,56.60
2019-03-21T21:45:02.468Z,56.23
2019-03-21T21:47:34.032Z,56.97
2019-03-21T21:50:06.732Z,55.20
2019-03-21T21:52:42.223Z,56.17
2019-03-21T21:55:22.947Z,57.17
2019-03-21T21:57:54.843Z,54.87
2019-03-21T22:00:26.559Z,54.27
2019-03-21T22:02:58.275Z,57.37
2019-03-21T22:05:29.863Z,54.37
2019-03-21T22:08:01.429Z,61.03
2019-03-21T22:10:33.049Z,55.47
2019-03-21T22:13:04.761Z,59.40
2019-03-21T22:15:36.337Z,57.80
2019-03-21T22:18:07.871Z,54.50
2019-03-21T22:20:39.852Z,53.87
2019-03-21T22:23:11.509Z,54.43
2019-03-21T22:25:43.091Z,53.70
2019-03-21T22:28:14.670Z,58.20
2019-03-21T22:30:46.192Z,55.47
2019-03-21T22:33:17.829Z,54.53
2019-03-21T22:35:49.429Z,57.40
2019-03-21T22:38:21.043Z,57.43
2019-03-21T22:40:53.305Z,57.87
2019-03-21T22:43:24.895Z,58.50
2019-03-21T22:45:56.477Z,56.50
2019-03-21T22:48:28.133Z,58.33
2019-03-21T22:50:59.648Z,54.87
2019-03-21T22:53:31.275Z,56.03
2019-03-21T22:56:02.834Z,56.07
2019-03-21T22:58:36.597Z,57.10
2019-03-21T23:01:08.454Z,59.00
2019-03-21T23:03:40.207Z,51.40
2019-03-21T23:06:11.820Z,54.50
2019-03-21T23:08:43.393Z,49.77
2019-03-21T23:11:15.003Z,48.30
2019-03-21T23:13:48.097Z,60.00
2019-03-21T23:16:19.693Z,55.83
2019-03-21T23:18:51.694Z,55.23
2019-03-21T23:21:23.297Z,56.33
2019-03-21T23:23:55.311Z,54.97
2019-03-21T23:26:26.965Z,55.77
2019-03-21T23:28:59.657Z,56.23
2019-03-21T23:31:31.301Z,56.93
2019-03-21T23:34:03.214Z,62.57
2019-03-21T23:36:34.802Z,58.00
2019-03-21T23:39:07.260Z,56.30
2019-03-21T23:41:38.950Z,55.50
2019-03-21T23:44:11.104Z,53.77
2019-03-21T23:46:42.716Z,55.43
2019-03-21T23:49:14.715Z,57.07
2019-03-21T23:51:46.362Z,61.13
2019-03-21T23:54:18.270Z,58.17
2019-03-21T23:56:49.791Z,55.00
2019-03-21T23:59:21.732Z,53.73
